Time;durP1;ratioP1;P1;durP2;ratioP2;P2;SDS_P1;SDS_P2;PMS_P1;PMS_P2;Temp;Humidity;BMP_temperature;BMP_pressure;BME280_temperature;BME280_humidity;BME280_pressure;Samples;Min_cycle;Max_cycle;Signal;HPM_P1;HPM_P2
2023/06/12 00:01:31;;;;;;;5.60;5.10;;;;;;;19.07;43.76;95472.66;4986761;28;20191;-87
2023/06/12 00:03:57;;;;;;;6.47;5.40;;;;;;;18.95;43.86;95473.28;4985436;28;20274;-86
2023/06/12 00:06:22;;;;;;;6.10;5.50;;;;;;;18.92;43.96;95481.59;5003959;28;20717;-87
2023/06/12 00:08:48;;;;;;;5.63;5.20;;;;;;;18.89;44.10;95481.97;4987624;28;20298;-87
2023/06/12 00:11:13;;;;;;;6.55;5.80;;;;;;;18.91;44.18;95476.53;4985241;28;20187;-87
2023/06/12 00:13:40;;;;;;;5.90;5.22;;;;;;;18.88;44.30;95477.72;4980859;28;20215;-87
2023/06/12 00:16:05;;;;;;;7.22;5.38;;;;;;;18.81;44.53;95482.16;4982677;28;20632;-87
2023/06/12 00:18:31;;;;;;;6.82;5.47;;;;;;;18.77;44.60;95477.50;4967390;28;20271;-87
2023/06/12 00:20:56;;;;;;;5.60;5.10;;;;;;;18.76;45.14;95481.97;4972016;28;20325;-87
2023/06/12 00:23:22;;;;;;;5.68;5.18;;;;;;;18.69;45.07;95470.63;4987537;28;20195;-88
2023/06/12 00:25:48;;;;;;;6.00;5.50;;;;;;;18.65;44.88;95472.84;4975439;28;20691;-86
2023/06/12 00:28:13;;;;;;;7.55;5.38;;;;;;;18.64;44.93;95471.19;4986631;28;20262;-86
2023/06/12 00:30:39;;;;;;;5.80;5.20;;;;;;;18.59;45.05;95472.78;4985207;28;20292;-87
2023/06/12 00:33:04;;;;;;;6.05;5.45;;;;;;;18.57;45.53;95472.19;4984196;28;20675;-87
2023/06/12 00:35:29;;;;;;;6.35;5.85;;;;;;;18.48;45.41;95465.50;4988693;28;20186;-87
2023/06/12 00:37:55;;;;;;;5.70;5.20;;;;;;;18.43;45.99;95466.06;4976327;28;20180;-86
2023/06/12 00:40:20;;;;;;;5.65;5.25;;;;;;;18.44;45.75;95467.69;5010068;28;20275;-86
2023/06/12 00:42:47;;;;;;;6.25;5.72;;;;;;;18.46;45.60;95464.84;5004106;28;20163;-86
2023/06/12 00:45:13;;;;;;;6.28;5.68;;;;;;;18.36;45.82;95466.03;5015111;28;20206;-86
2023/06/12 00:47:40;;;;;;;6.00;5.28;;;;;;;18.35;46.07;95472.31;4985928;28;20246;-87
2023/06/12 00:50:09;;;;;;;5.65;5.15;;;;;;;18.35;45.74;95469.69;4987915;28;20222;-88
2023/06/12 00:52:35;;;;;;;6.63;5.97;;;;;;;18.22;46.25;95468.84;4980225;28;20183;-87
2023/06/12 00:55:01;;;;;;;5.90;5.40;;;;;;;18.20;46.10;95471.66;4967400;28;20229;-87
2023/06/12 00:57:27;;;;;;;6.32;5.72;;;;;;;18.17;46.72;95471.22;4995576;28;20652;-87
2023/06/12 00:59:53;;;;;;;5.90;5.40;;;;;;;18.09;47.00;95472.22;4995393;28;20198;-86
2023/06/12 01:02:20;;;;;;;6.05;5.45;;;;;;;18.06;46.42;95468.16;4968177;28;20197;-88
2023/06/12 01:04:46;;;;;;;8.77;6.00;;;;;;;18.09;46.75;95470.38;4986089;28;20199;-88
2023/06/12 01:07:21;;;;;;;5.75;5.25;;;;;;;18.06;46.67;95462.09;4985656;28;20189;-87
2023/06/12 01:09:48;;;;;;;5.53;5.03;;;;;;;18.11;46.75;95467.59;4951858;28;20196;-87
2023/06/12 01:12:15;;;;;;;8.38;5.45;;;;;;;18.01;47.06;95467.94;4986102;28;20198;-88
2023/06/12 01:14:45;;;;;;;5.20;4.80;;;;;;;17.94;47.11;95471.56;4980687;28;20579;-88
2023/06/12 01:17:10;;;;;;;7.07;5.40;;;;;;;17.93;47.27;95467.28;4976054;28;20184;-88
2023/06/12 01:19:36;;;;;;;6.38;5.28;;;;;;;17.93;46.98;95464.66;4970896;28;20190;-87
2023/06/12 01:22:05;;;;;;;6.18;5.25;;;;;;;17.88;47.36;95467.88;4967679;28;20183;-87
2023/06/12 01:24:45;;;;;;;6.10;5.45;;;;;;;17.87;47.47;95476.78;4997877;28;20594;-87
2023/06/12 01:27:25;;;;;;;6.13;5.53;;;;;;;17.83;47.51;95468.44;4993100;28;20286;-87
2023/06/12 01:29:54;;;;;;;5.65;5.15;;;;;;;17.70;47.68;95483.34;4989324;28;20320;-87
2023/06/12 01:32:20;;;;;;;5.72;5.22;;;;;;;17.74;47.79;95468.81;4993613;28;20567;-87
2023/06/12 01:34:53;;;;;;;6.07;5.50;;;;;;;17.75;47.50;95471.22;4982879;28;20203;-86
2023/06/12 01:37:32;;;;;;;5.70;5.18;;;;;;;17.71;47.98;95472.63;4982891;28;20196;-88
2023/06/12 01:39:59;;;;;;;5.20;4.80;;;;;;;17.70;47.71;95468.38;4989652;28;20670;-88
2023/06/12 01:42:26;;;;;;;5.72;4.80;;;;;;;17.61;48.16;95477.41;4984942;28;20190;-88
2023/06/12 01:44:52;;;;;;;6.55;5.20;;;;;;;17.59;48.30;95471.53;4979677;28;20258;-87
2023/06/12 01:47:18;;;;;;;5.60;4.57;;;;;;;17.60;48.18;95467.91;4986026;28;20200;-87
2023/06/12 01:49:44;;;;;;;5.88;5.28;;;;;;;17.70;48.25;95463.13;4988485;28;20764;-88
2023/06/12 01:52:09;;;;;;;6.13;5.53;;;;;;;17.56;48.27;95458.78;4971210;28;20195;-88
2023/06/12 01:54:35;;;;;;;5.88;5.28;;;;;;;17.55;48.17;95457.97;4968636;28;20211;-89
2023/06/12 01:57:01;;;;;;;6.15;5.00;;;;;;;17.54;48.32;95455.53;4974426;28;20208;-86
2023/06/12 01:59:26;;;;;;;5.50;5.00;;;;;;;17.51;48.74;95459.38;4969084;28;20610;-87
2023/06/12 02:01:51;;;;;;;5.80;5.30;;;;;;;17.48;48.73;95454.47;5001396;28;20187;-87
2023/06/12 02:04:17;;;;;;;7.25;5.50;;;;;;;17.48;48.92;95456.28;4974106;28;20240;-88
2023/06/12 02:06:42;;;;;;;6.55;5.43;;;;;;;17.45;48.94;95451.44;4965138;28;20711;-87
2023/06/12 02:09:07;;;;;;;5.68;5.18;;;;;;;17.37;49.26;95456.84;4970901;28;20533;-88
2023/06/12 02:11:33;;;;;;;6.55;5.88;;;;;;;17.43;49.20;95456.06;4972179;28;20647;-87
2023/06/12 02:13:58;;;;;;;6.95;6.35;;;;;;;17.40;49.24;95453.81;4978350;28;20230;-86
2023/06/12 02:16:23;;;;;;;5.30;4.80;;;;;;;17.40;48.95;95459.06;4972240;28;20184;-88
2023/06/12 02:18:49;;;;;;;5.55;5.05;;;;;;;17.33;49.20;95455.59;4989360;28;20188;-87
2023/06/12 02:21:14;;;;;;;6.00;5.40;;;;;;;17.21;50.08;95458.72;5000982;28;20251;-88
2023/06/12 02:23:41;;;;;;;6.32;5.57;;;;;;;17.14;50.26;95457.91;4973115;28;20298;-87
2023/06/12 02:26:07;;;;;;;6.13;5.47;;;;;;;17.02;50.66;95455.97;4989682;28;20183;-86
2023/06/12 02:28:32;;;;;;;6.07;5.22;;;;;;;16.99;50.99;95452.72;4971681;28;20183;-87
2023/06/12 02:30:57;;;;;;;5.80;5.25;;;;;;;16.97;50.84;95459.97;4986217;28;20288;-87
2023/06/12 02:33:25;;;;;;;6.68;6.00;;;;;;;16.92;50.94;95459.72;4970377;28;20290;-87
2023/06/12 02:35:50;;;;;;;6.32;5.75;;;;;;;16.88;51.12;95460.31;5005624;28;20193;-86
2023/06/12 02:38:16;;;;;;;7.15;5.45;;;;;;;16.89;51.12;95459.31;4988779;28;20273;-88
2023/06/12 02:40:41;;;;;;;5.90;5.40;;;;;;;16.82;51.21;95450.56;4965943;28;20215;-86
2023/06/12 02:43:06;;;;;;;5.57;4.95;;;;;;;16.84;51.56;95453.78;4974373;28;20214;-87
2023/06/12 02:45:31;;;;;;;6.85;5.90;;;;;;;16.79;51.70;95462.25;4970580;28;20210;-87
2023/06/12 02:47:57;;;;;;;6.07;5.40;;;;;;;16.81;51.66;95456.81;4960706;28;20199;-88
2023/06/12 02:50:22;;;;;;;6.65;5.65;;;;;;;16.81;51.56;95459.44;4984769;28;20187;-87
2023/06/12 02:52:48;;;;;;;8.25;5.90;;;;;;;16.77;52.07;95455.53;4992298;28;20191;-86
2023/06/12 02:55:13;;;;;;;5.78;5.28;;;;;;;16.79;51.89;95459.63;4981724;28;20198;-87
2023/06/12 02:57:39;;;;;;;5.93;5.32;;;;;;;16.69;52.04;95459.09;4977974;28;20290;-88
2023/06/12 03:00:05;;;;;;;7.22;5.82;;;;;;;16.61;52.50;95454.78;4974641;28;20240;-87
2023/06/12 03:02:30;;;;;;;6.47;5.60;;;;;;;16.61;52.72;95459.22;4985284;28;20191;-87
2023/06/12 03:04:56;;;;;;;6.00;5.50;;;;;;;16.60;52.71;95458.38;4973352;28;20211;-86
2023/06/12 03:07:21;;;;;;;6.38;5.78;;;;;;;16.63;52.54;95454.59;4976331;28;20198;-87
2023/06/12 03:09:47;;;;;;;6.53;5.85;;;;;;;16.65;53.04;95463.06;4972143;28;20199;-87
2023/06/12 03:12:12;;;;;;;5.55;5.05;;;;;;;16.59;53.57;95466.44;4985966;28;20192;-87
2023/06/12 03:14:38;;;;;;;6.68;5.40;;;;;;;16.55;53.63;95463.38;4977769;28;20210;-85
2023/06/12 03:17:04;;;;;;;6.07;5.50;;;;;;;16.53;53.65;95470.63;4984207;28;20271;-86
2023/06/12 03:19:30;;;;;;;5.82;5.32;;;;;;;16.52;53.79;95469.00;4987381;28;20191;-86
2023/06/12 03:21:55;;;;;;;8.43;5.70;;;;;;;16.41;54.30;95464.22;4968229;28;20669;-87
2023/06/12 03:24:21;;;;;;;5.82;5.32;;;;;;;16.40;54.40;95468.66;4982685;28;20270;-87
2023/06/12 03:26:46;;;;;;;5.93;5.30;;;;;;;16.44;54.02;95469.13;4983904;28;20257;-87
2023/06/12 03:29:12;;;;;;;6.45;5.57;;;;;;;16.50;54.21;95468.34;4986038;28;20242;-87
2023/06/12 03:31:38;;;;;;;5.40;5.00;;;;;;;16.44;54.23;95477.00;4977963;28;20184;-88
2023/06/12 03:34:03;;;;;;;8.70;5.72;;;;;;;16.42;54.59;95469.28;4982462;28;20227;-87
2023/06/12 03:36:28;;;;;;;6.72;6.13;;;;;;;16.47;54.33;95476.59;4988145;28;20270;-87
2023/06/12 03:38:54;;;;;;;10.07;5.75;;;;;;;16.48;54.23;95472.97;4976436;28;20725;-85
2023/06/12 03:41:21;;;;;;;5.75;5.07;;;;;;;16.64;54.17;95477.19;4970295;28;20187;-88
2023/06/12 03:43:46;;;;;;;7.38;5.90;;;;;;;16.80;54.04;95481.41;4971079;28;20225;-86
2023/06/12 03:46:11;;;;;;;6.50;5.80;;;;;;;17.34;52.65;95483.47;4970077;28;20205;-87
2023/06/12 03:48:37;;;;;;;6.95;5.63;;;;;;;17.96;51.37;95485.31;4993857;28;20276;-87
2023/06/12 03:51:02;;;;;;;6.32;5.35;;;;;;;19.00;48.67;95482.41;4992564;28;20334;-88
2023/06/12 03:53:27;;;;;;;6.00;5.38;;;;;;;19.69;46.20;95487.25;4970815;28;20219;-87
2023/06/12 03:55:53;;;;;;;6.43;5.15;;;;;;;21.21;43.63;95497.16;4991659;28;20191;-87
2023/06/12 03:58:18;;;;;;;6.57;5.07;;;;;;;21.71;41.38;95505.88;4979425;28;20191;-87
2023/06/12 04:00:47;;;;;;;5.60;5.10;;;;;;;22.34;39.73;95508.28;4985020;28;20188;-87
2023/06/12 04:03:17;;;;;;;5.28;4.88;;;;;;;23.16;37.64;95511.31;4984834;28;20578;-87
2023/06/12 04:05:43;;;;;;;5.85;5.22;;;;;;;23.10;38.09;95514.84;4970210;28;20203;-87
2023/06/12 04:08:08;;;;;;;5.95;5.32;;;;;;;23.96;36.40;95516.13;4981132;28;20192;-87
2023/06/12 04:10:35;;;;;;;5.25;4.75;;;;;;;23.68;36.51;95518.66;4980162;28;20188;-87
2023/06/12 04:13:00;;;;;;;6.18;5.60;;;;;;;24.66;36.02;95517.06;4982016;28;20188;-87
2023/06/12 04:15:26;;;;;;;5.43;4.93;;;;;;;24.99;34.54;95518.97;4994521;28;20245;-87
2023/06/12 04:17:52;;;;;;;6.00;5.40;;;;;;;25.13;34.29;95523.00;5007673;28;20219;-87
2023/06/12 04:20:18;;;;;;;5.43;4.90;;;;;;;24.65;34.98;95518.91;4965213;28;20183;-87
2023/06/12 04:22:47;;;;;;;5.15;4.75;;;;;;;26.27;32.55;95530.63;5000756;28;20236;-86
2023/06/12 04:25:13;;;;;;;5.18;4.70;;;;;;;27.37;30.82;95518.03;4995018;28;20204;-86
2023/06/12 04:27:42;;;;;;;5.78;4.85;;;;;;;26.30;32.10;95524.00;4988067;28;20244;-87
2023/06/12 04:30:09;;;;;;;5.03;4.53;;;;;;;26.92;31.01;95521.03;4987928;28;20551;-85
2023/06/12 04:32:34;;;;;;;5.07;4.68;;;;;;;28.39;29.22;95535.59;4985687;28;20191;-87
2023/06/12 04:35:00;;;;;;;5.30;4.80;;;;;;;28.82;28.76;95536.31;4995646;28;20307;-86
2023/06/12 04:37:25;;;;;;;5.38;4.90;;;;;;;27.81;29.59;95529.34;4995325;28;20184;-86
2023/06/12 04:39:52;;;;;;;6.05;5.45;;;;;;;28.49;28.28;95535.66;4968572;28;20267;-86
2023/06/12 04:42:17;;;;;;;5.55;5.05;;;;;;;27.96;29.79;95535.84;4975522;28;20564;-86
2023/06/12 04:44:46;;;;;;;5.75;4.70;;;;;;;29.44;27.86;95543.41;5004606;28;20213;-86
2023/06/12 04:47:12;;;;;;;7.20;5.38;;;;;;;29.31;27.71;95535.91;4979694;28;20190;-84
2023/06/12 04:49:41;;;;;;;5.53;5.03;;;;;;;30.17;26.95;95543.16;4977365;28;20180;-84
2023/06/12 04:52:07;;;;;;;6.60;5.18;;;;;;;29.43;27.69;95539.13;4981382;28;20285;-85
2023/06/12 04:54:38;;;;;;;5.05;4.65;;;;;;;30.14;27.27;95541.84;4977478;28;20607;-85
2023/06/12 04:57:08;;;;;;;5.30;4.90;;;;;;;29.34;28.52;95541.53;4979742;28;20176;-82
2023/06/12 04:59:37;;;;;;;5.13;4.70;;;;;;;29.73;27.79;95543.72;5002800;28;20721;-83
2023/06/12 05:02:03;;;;;;;5.18;4.65;;;;;;;32.43;23.83;95534.28;4996450;28;20183;-83
2023/06/12 05:04:29;;;;;;;5.05;4.65;;;;;;;32.43;24.12;95541.53;4986045;28;20733;-83
2023/06/12 05:06:56;;;;;;;5.65;4.82;;;;;;;31.40;25.16;95535.44;5009342;28;20191;-83
2023/06/12 05:09:21;;;;;;;5.45;4.90;;;;;;;32.26;23.61;95532.00;4977629;28;20205;-84
2023/06/12 05:11:46;;;;;;;5.65;4.97;;;;;;;30.49;26.29;95540.13;4972338;28;20180;-83
2023/06/12 05:14:12;;;;;;;5.30;4.78;;;;;;;32.46;23.25;95541.75;4980528;28;20211;-83
2023/06/12 05:16:37;;;;;;;6.05;5.15;;;;;;;30.70;26.21;95536.31;4977311;28;20188;-85
2023/06/12 05:19:02;;;;;;;9.30;5.00;;;;;;;31.32;25.94;95536.03;5008735;28;20557;-85
2023/06/12 05:21:28;;;;;;;13.40;6.38;;;;;;;32.66;23.38;95532.66;4981384;28;20183;-85
2023/06/12 05:23:55;;;;;;;4.95;4.55;;;;;;;34.09;22.11;95552.94;4988757;28;20287;-85
2023/06/12 05:26:23;;;;;;;4.82;4.43;;;;;;;32.97;23.08;95547.34;4998224;28;20184;-84
2023/06/12 05:28:49;;;;;;;6.05;4.88;;;;;;;32.93;23.15;95549.00;4982428;28;20180;-85
2023/06/12 05:31:17;;;;;;;6.40;4.70;;;;;;;34.12;21.44;95555.06;5002605;28;20201;-85
2023/06/12 05:33:51;;;;;;;4.68;4.28;;;;;;;33.86;22.15;95553.88;4997122;28;20216;-86
2023/06/12 05:36:16;;;;;;;5.82;5.15;;;;;;;32.71;23.08;95561.38;4968717;28;20203;-86
2023/06/12 05:38:46;;;;;;;4.90;4.60;;;;;;;32.61;23.55;95556.94;4999853;28;20717;-84
2023/06/12 05:41:13;;;;;;;5.20;4.78;;;;;;;32.23;23.56;95562.13;4979186;28;20188;-85
2023/06/12 05:43:39;;;;;;;5.40;4.93;;;;;;;31.51;25.49;95561.09;4987917;28;20213;-84
2023/06/12 05:46:04;;;;;;;5.30;4.80;;;;;;;31.54;25.12;95560.53;4994083;28;20218;-83
2023/06/12 05:48:30;;;;;;;5.60;5.10;;;;;;;33.37;22.93;95555.16;4991020;28;20697;-81
2023/06/12 05:50:55;;;;;;;5.70;5.30;;;;;;;31.78;24.94;95555.28;5007031;28;20229;-81
2023/06/12 05:53:20;;;;;;;5.82;5.32;;;;;;;32.74;23.79;95558.09;4978818;28;20574;-83
2023/06/12 05:55:46;;;;;;;5.28;4.88;;;;;;;33.45;23.23;95549.94;4989785;28;20179;-83
2023/06/12 05:58:11;;;;;;;5.50;5.00;;;;;;;33.82;22.39;95556.34;4997743;28;20254;-82
2023/06/12 06:00:37;;;;;;;5.43;4.93;;;;;;;33.95;22.43;95561.00;4980913;28;20266;-80
2023/06/12 06:03:02;;;;;;;6.10;5.20;;;;;;;32.54;23.90;95559.16;4983703;28;20179;-81
2023/06/12 06:05:30;;;;;;;6.20;5.68;;;;;;;32.10;24.48;95555.53;4979477;28;20203;-80
2023/06/12 06:07:55;;;;;;;5.82;5.25;;;;;;;32.80;23.24;95557.75;4993549;28;20191;-79
2023/06/12 06:10:21;;;;;;;5.75;5.20;;;;;;;32.51;24.07;95557.00;4974557;28;20191;-79
2023/06/12 06:12:46;;;;;;;7.57;5.45;;;;;;;32.58;23.63;95557.47;4978728;28;20270;-80
2023/06/12 06:15:12;;;;;;;7.97;5.30;;;;;;;32.02;24.81;95560.72;4998906;28;20184;-79
2023/06/12 06:17:37;;;;;;;6.40;5.90;;;;;;;31.61;25.05;95566.38;4999387;28;20219;-79
2023/06/12 06:20:05;;;;;;;7.57;5.35;;;;;;;32.19;24.82;95566.47;4995040;28;20187;-80
2023/06/12 06:22:31;;;;;;;6.82;5.40;;;;;;;32.88;24.06;95567.91;5002720;28;20218;-79
2023/06/12 06:24:57;;;;;;;6.25;5.65;;;;;;;33.06;23.58;95573.63;4989680;28;20704;-80
2023/06/12 06:27:22;;;;;;;6.40;5.80;;;;;;;32.24;24.71;95571.78;4992948;28;20198;-79
2023/06/12 06:29:47;;;;;;;9.13;8.48;;;;;;;33.74;22.64;95578.56;4985072;28;20182;-80
2023/06/12 06:32:13;;;;;;;6.10;5.60;;;;;;;31.84;25.18;95583.69;5003822;28;20195;-80
2023/06/12 06:34:38;;;;;;;6.80;6.20;;;;;;;30.46;26.48;95578.16;4995565;28;20199;-79
2023/06/12 06:37:03;;;;;;;6.40;5.72;;;;;;;32.36;24.13;95574.94;4981340;28;20183;-80
2023/06/12 06:39:29;;;;;;;6.78;6.05;;;;;;;31.76;25.11;95576.25;4982065;28;20255;-82
2023/06/12 06:41:54;;;;;;;6.28;5.78;;;;;;;31.21;26.14;95581.69;4987057;28;20192;-80
2023/06/12 06:44:19;;;;;;;6.63;5.97;;;;;;;31.16;26.14;95581.69;4979910;28;20646;-80
2023/06/12 06:46:45;;;;;;;7.10;6.28;;;;;;;31.79;25.09;95573.78;4993527;28;20194;-80
2023/06/12 06:49:10;;;;;;;6.18;5.43;;;;;;;31.25;25.80;95585.41;4992411;28;20610;-79
2023/06/12 06:51:36;;;;;;;6.53;5.70;;;;;;;32.26;24.46;95582.25;4965793;28;20242;-81
2023/06/12 06:54:01;;;;;;;6.38;5.22;;;;;;;31.99;24.60;95580.09;4970486;28;20196;-80
2023/06/12 06:56:27;;;;;;;6.05;5.50;;;;;;;31.50;25.24;95584.44;4989222;28;20787;-80
2023/06/12 06:58:52;;;;;;;11.82;5.90;;;;;;;31.36;25.26;95577.28;4987228;28;20211;-80
2023/06/12 07:01:17;;;;;;;6.15;5.50;;;;;;;31.93;25.43;95582.00;4989723;28;20206;-82
2023/06/12 07:03:43;;;;;;;6.68;5.38;;;;;;;31.37;25.54;95578.94;5009090;28;20643;-81
2023/06/12 07:06:08;;;;;;;6.65;6.05;;;;;;;31.61;25.72;95585.19;4952860;28;20208;-80
2023/06/12 07:08:33;;;;;;;6.72;6.13;;;;;;;30.60;27.35;95571.19;4979070;28;20219;-80
2023/06/12 07:10:59;;;;;;;8.40;5.90;;;;;;;31.43;25.94;95578.59;4991701;28;20265;-80
2023/06/12 07:13:24;;;;;;;6.47;5.88;;;;;;;31.58;25.66;95572.31;5003393;28;20786;-80
2023/06/12 07:15:51;;;;;;;7.10;6.50;;;;;;;31.32;26.17;95579.75;4995452;28;20251;-80
2023/06/12 07:18:17;;;;;;;6.25;5.65;;;;;;;30.79;26.95;95579.44;4982988;28;20806;-81
2023/06/12 07:20:42;;;;;;;6.75;5.80;;;;;;;31.26;25.90;95565.53;4985011;28;20184;-80
2023/06/12 07:23:07;;;;;;;6.30;5.68;;;;;;;31.61;26.50;95574.44;4979663;28;20270;-80
2023/06/12 07:25:33;;;;;;;6.25;5.65;;;;;;;31.53;26.23;95569.66;4984994;28;20339;-79
2023/06/12 07:27:58;;;;;;;8.43;5.93;;;;;;;31.07;27.44;95574.47;4991887;28;20191;-80
2023/06/12 07:30:23;;;;;;;7.22;5.90;;;;;;;30.57;27.80;95571.72;4998711;28;20672;-80
2023/06/12 07:32:49;;;;;;;6.45;5.85;;;;;;;31.04;27.76;95561.63;4969438;28;20224;-80
2023/06/12 07:35:15;;;;;;;6.53;6.03;;;;;;;31.38;26.44;95567.91;4978067;28;20254;-80
2023/06/12 07:37:41;;;;;;;6.43;5.80;;;;;;;30.83;26.41;95569.75;4983672;28;20183;-80
2023/06/12 07:40:08;;;;;;;5.80;5.28;;;;;;;30.88;27.19;95572.44;4980520;28;20187;-80
2023/06/12 07:42:34;;;;;;;8.57;5.72;;;;;;;30.70;27.56;95573.84;4979228;28;20184;-79
2023/06/12 07:44:59;;;;;;;10.95;6.07;;;;;;;29.94;27.82;95567.78;4984732;28;20225;-80
2023/06/12 07:47:25;;;;;;;6.28;5.78;;;;;;;31.39;26.29;95566.81;4985937;28;20652;-80
2023/06/12 07:49:50;;;;;;;7.40;5.60;;;;;;;30.41;27.70;95575.53;4952789;28;20246;-80
2023/06/12 07:52:15;;;;;;;6.65;5.80;;;;;;;30.54;26.75;95568.78;4982034;28;20180;-80
2023/06/12 07:54:42;;;;;;;7.93;5.60;;;;;;;30.35;27.29;95571.25;4981473;28;20739;-84
2023/06/12 07:57:07;;;;;;;6.25;5.65;;;;;;;28.04;29.97;95570.06;4987037;28;20194;-84
2023/06/12 07:59:33;;;;;;;6.35;5.75;;;;;;;28.74;29.01;95566.22;4967467;28;20188;-82
2023/06/12 08:01:59;;;;;;;8.07;6.45;;;;;;;28.97;28.45;95560.41;4968639;28;20186;-83
2023/06/12 08:04:25;;;;;;;8.73;5.80;;;;;;;28.29;30.01;95558.78;4976334;28;20286;-84
2023/06/12 08:06:54;;;;;;;6.63;5.65;;;;;;;28.22;31.42;95561.66;4966323;28;20211;-83
2023/06/12 08:09:19;;;;;;;6.47;5.55;;;;;;;27.90;30.89;95562.50;4985653;28;20190;-84
2023/06/12 08:11:45;;;;;;;7.28;6.45;;;;;;;27.69;30.84;95557.25;4984828;28;20199;-80
2023/06/12 08:14:11;;;;;;;7.80;7.13;;;;;;;26.11;33.63;95558.88;4966786;28;20208;-80
2023/06/12 08:16:36;;;;;;;7.18;6.47;;;;;;;25.98;34.01;95562.72;4982386;28;20187;-79
2023/06/12 08:19:01;;;;;;;7.75;6.13;;;;;;;25.74;34.68;95557.81;4978827;28;20183;-80
2023/06/12 08:21:26;;;;;;;10.82;6.03;;;;;;;26.62;32.93;95558.78;4989757;28;20618;-80
2023/06/12 08:23:52;;;;;;;8.27;6.03;;;;;;;26.67;32.77;95561.50;4970301;28;20218;-81
2023/06/12 08:26:17;;;;;;;8.05;6.18;;;;;;;27.01;32.67;95551.50;5010642;28;20826;-80
2023/06/12 08:28:43;;;;;;;8.52;6.15;;;;;;;26.01;33.74;95558.75;4984991;28;20187;-80
2023/06/12 08:31:09;;;;;;;10.50;6.47;;;;;;;26.39;33.85;95565.16;4989270;28;20197;-80
2023/06/12 08:33:34;;;;;;;8.57;6.72;;;;;;;26.86;33.02;95559.31;4965024;28;20393;-80
2023/06/12 08:36:00;;;;;;;7.13;6.43;;;;;;;25.95;34.40;95559.72;4968606;28;20708;-81
2023/06/12 08:38:25;;;;;;;9.48;6.95;;;;;;;25.80;35.36;95557.63;4979571;28;20191;-81
2023/06/12 08:40:56;;;;;;;9.35;6.20;;;;;;;25.46;35.15;95554.13;4987487;28;20191;-80
2023/06/12 08:43:22;;;;;;;7.18;6.07;;;;;;;25.10;35.14;95544.75;4988998;28;20203;-81
2023/06/12 08:45:50;;;;;;;7.25;6.50;;;;;;;24.92;35.27;95545.72;4986872;28;20207;-80
2023/06/12 08:48:17;;;;;;;7.65;5.80;;;;;;;25.20;35.05;95546.78;4985161;28;20528;-80
2023/06/12 08:50:43;;;;;;;8.93;6.10;;;;;;;25.33;33.24;95543.78;5007686;28;20191;-80
2023/06/12 08:53:09;;;;;;;6.95;6.35;;;;;;;24.96;34.01;95546.84;4968735;28;20231;-81
2023/06/12 08:55:39;;;;;;;9.00;7.05;;;;;;;25.11;35.22;95552.47;4974958;28;20190;-81
2023/06/12 08:58:05;;;;;;;7.22;6.03;;;;;;;24.68;34.22;95549.47;4979275;28;20270;-81
2023/06/12 09:00:31;;;;;;;7.10;6.40;;;;;;;24.99;34.28;95546.34;4983132;28;20303;-80
2023/06/12 09:02:56;;;;;;;7.40;6.75;;;;;;;25.19;33.63;95543.31;4983400;28;20183;-81
2023/06/12 09:05:29;;;;;;;7.40;6.03;;;;;;;25.41;33.40;95546.88;4962175;28;20219;-81
2023/06/12 09:07:57;;;;;;;6.22;5.70;;;;;;;25.79;32.07;95545.38;4997260;28;20656;-81
2023/06/12 09:10:22;;;;;;;7.00;5.53;;;;;;;25.19;33.47;95543.31;4981502;28;20192;-80
2023/06/12 09:12:47;;;;;;;10.00;6.50;;;;;;;24.92;33.05;95529.78;4976488;28;20238;-80
2023/06/12 09:15:18;;;;;;;9.13;6.25;;;;;;;24.82;34.82;95548.94;4981154;28;20175;-79
2023/06/12 09:17:46;;;;;;;7.13;5.80;;;;;;;25.83;33.64;95540.38;4979409;28;20188;-79
2023/06/12 09:20:27;;;;;;;6.97;6.28;;;;;;;25.62;32.00;95537.38;4979494;28;20230;-79
2023/06/12 09:22:53;;;;;;;6.60;5.70;;;;;;;25.37;32.08;95540.44;4984734;28;20168;-79
2023/06/12 09:25:19;;;;;;;6.13;5.38;;;;;;;25.46;33.28;95537.38;4985843;28;20205;-79
2023/06/12 09:27:44;;;;;;;9.02;6.00;;;;;;;24.99;32.60;95533.06;5000350;28;20660;-79
2023/06/12 09:30:10;;;;;;;10.15;5.50;;;;;;;25.01;30.86;95538.97;4990170;28;20195;-79
2023/06/12 09:32:36;;;;;;;6.18;5.57;;;;;;;24.97;31.16;95544.97;4996980;28;20630;-81
2023/06/12 09:35:01;;;;;;;5.75;5.15;;;;;;;24.68;31.46;95533.56;4991533;28;20575;-81
2023/06/12 09:37:27;;;;;;;6.68;5.30;;;;;;;24.42;32.83;95540.19;4985667;28;20648;-80
2023/06/12 09:40:08;;;;;;;6.53;5.93;;;;;;;24.51;32.78;95525.53;4991133;28;20191;-80
2023/06/12 09:42:38;;;;;;;5.93;5.30;;;;;;;24.74;31.76;95532.63;4980723;28;20268;-82
2023/06/12 09:45:20;;;;;;;8.27;5.68;;;;;;;24.98;32.30;95542.09;4988732;28;20271;-84
2023/06/12 09:47:51;;;;;;;6.25;5.63;;;;;;;24.80;32.30;95537.78;4965180;28;20242;-83
2023/06/12 09:50:18;;;;;;;6.20;5.60;;;;;;;24.90;31.03;95553.09;4968571;28;20195;-81
2023/06/12 09:52:45;;;;;;;6.97;5.80;;;;;;;25.17;32.66;95536.59;4991752;28;20195;-82
2023/06/12 09:55:15;;;;;;;6.45;5.85;;;;;;;25.55;31.11;95543.91;4987595;28;20262;-81
2023/06/12 09:57:51;;;;;;;8.65;6.00;;;;;;;25.46;30.94;95535.53;4989113;28;20217;-83
2023/06/12 10:00:17;;;;;;;6.15;5.55;;;;;;;25.26;32.12;95545.78;4995687;28;20190;-83
2023/06/12 10:02:50;;;;;;;6.72;5.80;;;;;;;25.70;31.39;95537.00;4999964;28;20178;-81
2023/06/12 10:05:24;;;;;;;6.70;6.10;;;;;;;26.29;31.36;95531.19;4982764;28;20606;-82
2023/06/12 10:07:52;;;;;;;6.90;6.20;;;;;;;26.30;30.86;95534.66;4965778;28;20196;-83
2023/06/12 10:10:19;;;;;;;6.55;5.60;;;;;;;25.90;30.75;95531.19;4975442;28;20206;-83
2023/06/12 10:12:44;;;;;;;8.15;5.75;;;;;;;26.09;31.96;95534.38;4993345;28;20184;-84
2023/06/12 10:15:11;;;;;;;6.82;6.13;;;;;;;26.21;31.92;95532.41;4963256;28;20239;-84
2023/06/12 10:17:37;;;;;;;8.45;6.03;;;;;;;26.57;30.01;95530.22;4986405;28;20191;-87
2023/06/12 10:20:04;;;;;;;6.10;5.50;;;;;;;26.77;30.62;95519.03;4979734;28;20195;-82
2023/06/12 10:22:29;;;;;;;6.95;6.10;;;;;;;27.14;30.79;95527.16;4968056;28;20200;-83
2023/06/12 10:24:57;;;;;;;7.55;5.88;;;;;;;26.97;29.91;95519.22;4976836;28;20219;-83
2023/06/12 10:27:22;;;;;;;6.57;5.68;;;;;;;26.64;29.89;95525.53;4968296;28;20207;-83
2023/06/12 10:29:55;;;;;;;6.88;5.78;;;;;;;26.33;29.59;95519.00;4985033;28;20595;-83
2023/06/12 10:32:20;;;;;;;7.47;5.22;;;;;;;26.67;29.56;95510.91;4973023;28;20642;-84
2023/06/12 10:34:48;;;;;;;6.20;5.60;;;;;;;26.54;29.09;95522.75;4987576;28;20266;-84
2023/06/12 10:37:32;;;;;;;7.90;6.03;;;;;;;26.82;30.99;95522.53;4987806;28;20215;-83
2023/06/12 10:40:10;;;;;;;5.90;5.40;;;;;;;26.45;28.99;95522.38;4964755;28;20188;-84
2023/06/12 10:42:54;;;;;;;6.28;5.68;;;;;;;26.26;29.32;95513.06;4987159;28;20199;-82
2023/06/12 10:45:29;;;;;;;6.20;5.50;;;;;;;25.99;30.89;95528.91;5008445;28;20268;-84
2023/06/12 10:50:30;;;;;;;6.53;5.93;;;;;;;26.00;29.86;95506.59;5004470;28;20195;-83
2023/06/12 10:52:56;;;;;;;6.63;6.03;;;;;;;25.79;30.44;95502.81;4966727;28;20266;-83
2023/06/12 10:55:23;;;;;;;8.55;6.10;;;;;;;25.74;31.80;95499.28;4966996;28;20188;-83
2023/06/12 10:58:03;;;;;;;6.35;5.75;;;;;;;26.26;30.75;95492.56;4983791;28;20188;-85
2023/06/12 11:00:33;;;;;;;6.70;5.85;;;;;;;25.34;31.01;95500.22;4956600;28;20187;-84
2023/06/12 11:03:06;;;;;;;8.75;5.57;;;;;;;26.01;30.58;95484.25;4973370;28;20272;-82
2023/06/12 11:05:35;;;;;;;7.00;5.18;;;;;;;25.70;29.79;95497.09;4999679;28;20207;-82
2023/06/12 11:08:11;;;;;;;5.53;5.13;;;;;;;25.70;30.13;95494.44;4969490;28;20198;-81
2023/06/12 11:10:37;;;;;;;5.75;5.18;;;;;;;26.46;29.77;95483.25;4992649;28;20183;-83
2023/06/12 11:13:03;;;;;;;6.40;5.80;;;;;;;26.48;29.37;95492.56;4992453;28;20186;-82
2023/06/12 11:15:31;;;;;;;6.10;5.22;;;;;;;25.86;29.72;95510.63;4985211;28;20620;-80
2023/06/12 11:17:56;;;;;;;6.18;5.40;;;;;;;26.23;29.46;95493.03;4987620;28;20242;-80
2023/06/12 11:20:22;;;;;;;6.03;5.10;;;;;;;26.51;28.71;95477.97;4980099;28;20184;-80
2023/06/12 11:22:52;;;;;;;6.05;5.55;;;;;;;26.91;28.11;95471.47;4984070;28;20188;-79
2023/06/12 11:25:17;;;;;;;5.72;5.22;;;;;;;26.36;28.73;95480.44;4978016;28;20735;-81
2023/06/12 11:27:43;;;;;;;5.30;4.90;;;;;;;26.79;28.02;95479.63;4982336;28;20216;-80
2023/06/12 11:30:13;;;;;;;6.78;5.82;;;;;;;27.15;27.35;95478.13;4990656;28;20195;-80
2023/06/12 11:32:40;;;;;;;5.90;5.40;;;;;;;26.94;27.10;95476.28;4983958;28;20195;-81
2023/06/12 11:35:06;;;;;;;6.13;5.57;;;;;;;26.82;27.27;95477.25;4985771;28;20200;-81